Time;durP1;ratioP1;P1;durP2;ratioP2;P2;SDS_P1;SDS_P2;PMS_P1;PMS_P2;Temp;Humidity;BMP_temperature;BMP_pressure;BME280_temperature;BME280_humidity;BME280_pressure;Samples;Min_cycle;Max_cycle;Signal;HPM_P1;HPM_P2
2021/05/03 00:02:05;;;;;;;8.95;8.05;;;3.20;99.90;;;;;;5006654;28;20033;-72
2021/05/03 00:04:31;;;;;;;8.50;7.70;;;3.00;99.90;;;;;;5027928;28;20030;-72
2021/05/03 00:06:56;;;;;;;9.20;7.72;;;3.20;99.90;;;;;;5024490;28;20030;-72
2021/05/03 00:09:22;;;;;;;9.45;8.05;;;3.40;99.90;;;;;;5021013;28;20056;-71
2021/05/03 00:11:47;;;;;;;8.70;7.90;;;3.40;99.90;;;;;;5024449;28;20034;-72
2021/05/03 00:14:13;;;;;;;9.05;8.25;;;3.40;99.90;;;;;;5009751;28;20022;-72
2021/05/03 00:16:39;;;;;;;9.27;8.48;;;3.50;99.90;;;;;;5024110;28;20109;-72
2021/05/03 00:19:04;;;;;;;8.30;7.50;;;3.30;99.90;;;;;;5010137;28;20049;-73
2021/05/03 00:21:30;;;;;;;9.25;8.45;;;3.60;99.90;;;;;;5004538;28;20726;-73
2021/05/03 00:23:56;;;;;;;9.50;8.35;;;3.70;99.90;;;;;;5030617;28;20029;-73
2021/05/03 00:26:21;;;;;;;9.32;8.43;;;3.80;99.90;;;;;;5028616;28;20084;-74
2021/05/03 00:28:47;;;;;;;9.80;8.90;;;3.60;99.90;;;;;;5027208;28;20084;-73
2021/05/03 00:31:12;;;;;;;10.40;9.20;;;3.20;99.90;;;;;;5003142;28;20057;-74
2021/05/03 00:33:38;;;;;;;9.05;8.18;;;3.20;99.90;;;;;;4999230;28;20108;-74
2021/05/03 00:36:04;;;;;;;9.38;8.48;;;3.10;99.90;;;;;;5013440;28;20034;-74
2021/05/03 00:38:30;;;;;;;9.70;8.80;;;2.90;99.90;;;;;;5027133;28;20028;-74
2021/05/03 00:40:57;;;;;;;9.45;8.65;;;2.90;99.90;;;;;;5023687;28;20025;-74
2021/05/03 00:43:22;;;;;;;10.52;9.45;;;3.00;99.90;;;;;;5015687;28;20025;-73
2021/05/03 00:45:48;;;;;;;11.40;8.80;;;2.80;99.90;;;;;;5023742;28;20498;-74
2021/05/03 00:48:15;;;;;;;9.60;8.80;;;2.90;99.90;;;;;;5013796;28;20026;-74
2021/05/03 00:50:42;;;;;;;9.68;8.75;;;3.10;99.90;;;;;;5023652;28;20112;-73
2021/05/03 00:53:08;;;;;;;10.23;9.30;;;3.10;99.90;;;;;;5020117;28;20446;-73
2021/05/03 00:55:34;;;;;;;10.95;9.48;;;2.90;99.90;;;;;;5005712;28;20109;-76
2021/05/03 00:58:00;;;;;;;10.63;9.52;;;2.90;99.90;;;;;;5026921;28;20385;-73
2021/05/03 01:00:27;;;;;;;11.05;10.05;;;2.70;99.90;;;;;;5023628;28;20261;-73
2021/05/03 01:02:53;;;;;;;10.38;9.38;;;2.80;99.90;;;;;;5019883;28;20029;-73
2021/05/03 01:05:19;;;;;;;10.32;9.30;;;2.70;99.90;;;;;;5023076;28;20072;-72
2021/05/03 01:07:48;;;;;;;10.35;9.25;;;2.80;99.90;;;;;;5026712;28;20392;-73
2021/05/03 01:10:15;;;;;;;12.02;9.38;;;3.00;99.90;;;;;;5013665;28;20022;-74
2021/05/03 01:12:41;;;;;;;11.80;9.75;;;3.00;99.90;;;;;;4996449;28;20026;-72
2021/05/03 01:15:09;;;;;;;11.43;10.30;;;2.80;99.90;;;;;;5024135;28;20032;-73
2021/05/03 01:17:35;;;;;;;10.80;9.90;;;2.70;99.90;;;;;;5028451;28;20026;-73
2021/05/03 01:20:12;;;;;;;10.77;9.77;;;2.80;99.90;;;;;;5028731;28;20024;-73
2021/05/03 01:22:38;;;;;;;10.35;9.38;;;2.90;99.90;;;;;;5009103;28;20084;-73
2021/05/03 01:25:07;;;;;;;11.02;10.02;;;2.90;99.90;;;;;;5025574;28;20033;-73
2021/05/03 01:27:34;;;;;;;11.02;10.02;;;2.80;99.90;;;;;;5019390;28;20025;-74
2021/05/03 01:30:07;;;;;;;10.90;9.75;;;2.90;99.90;;;;;;5002075;28;20076;-73
2021/05/03 01:32:33;;;;;;;11.63;10.40;;;2.80;99.90;;;;;;4990338;28;20404;-73
2021/05/03 01:34:58;;;;;;;12.60;11.35;;;2.80;99.90;;;;;;5019384;28;20030;-74
2021/05/03 01:37:24;;;;;;;12.20;10.98;;;2.50;99.90;;;;;;5025461;28;20053;-72
2021/05/03 01:39:50;;;;;;;11.35;10.35;;;2.60;99.90;;;;;;5012710;28;20025;-72
2021/05/03 01:42:16;;;;;;;11.82;10.75;;;2.60;99.90;;;;;;5019862;28;20147;-70
2021/05/03 01:44:42;;;;;;;10.77;9.77;;;2.50;99.90;;;;;;5031777;28;20029;-73
2021/05/03 01:47:09;;;;;;;13.25;10.45;;;2.60;99.90;;;;;;5019157;28;20590;-71
2021/05/03 01:49:35;;;;;;;10.45;9.50;;;2.70;99.90;;;;;;5019013;28;20030;-71
2021/05/03 01:52:01;;;;;;;11.05;9.90;;;2.80;99.90;;;;;;5024874;28;20034;-71
2021/05/03 01:54:27;;;;;;;11.38;10.20;;;2.90;99.90;;;;;;5007949;28;20025;-70
2021/05/03 01:56:53;;;;;;;11.10;10.00;;;2.80;99.90;;;;;;5020123;28;20487;-73
2021/05/03 01:59:19;;;;;;;11.77;10.77;;;2.90;99.90;;;;;;5001229;28;20072;-73
2021/05/03 02:01:44;;;;;;;11.10;10.07;;;2.90;99.90;;;;;;5006995;28;20503;-71
2021/05/03 02:04:10;;;;;;;11.27;10.27;;;3.00;99.90;;;;;;5008017;28;20483;-72
2021/05/03 02:06:39;;;;;;;12.00;10.80;;;3.00;99.90;;;;;;5019660;28;20025;-73
2021/05/03 02:09:09;;;;;;;12.20;10.93;;;3.00;99.90;;;;;;5017971;28;20026;-73
2021/05/03 02:11:35;;;;;;;11.45;10.32;;;3.10;99.90;;;;;;5020237;28;20041;-74
2021/05/03 02:14:00;;;;;;;13.38;12.07;;;3.10;99.90;;;;;;5018707;28;20036;-72
2021/05/03 02:16:26;;;;;;;11.75;10.55;;;3.10;99.90;;;;;;5023924;28;20026;-73
2021/05/03 02:18:51;;;;;;;14.18;12.38;;;3.10;99.90;;;;;;5021006;28;20075;-72
2021/05/03 02:21:17;;;;;;;12.32;11.10;;;2.90;99.90;;;;;;5020612;28;20027;-74
2021/05/03 02:23:43;;;;;;;12.35;11.13;;;2.60;99.90;;;;;;5000824;28;20120;-74
2021/05/03 02:26:08;;;;;;;11.57;10.48;;;2.50;99.90;;;;;;5023868;28;20068;-72
2021/05/03 02:28:33;;;;;;;11.75;10.75;;;2.80;99.90;;;;;;5025440;28;20030;-74
2021/05/03 02:30:59;;;;;;;11.73;10.68;;;2.60;99.90;;;;;;5020148;28;20103;-71
2021/05/03 02:33:25;;;;;;;13.38;11.55;;;2.20;99.90;;;;;;5018530;28;20366;-70
2021/05/03 02:35:51;;;;;;;12.23;11.05;;;2.20;99.90;;;;;;5023767;28;20038;-70
2021/05/03 02:38:18;;;;;;;11.35;10.25;;;2.40;99.90;;;;;;5025718;28;20025;-69
2021/05/03 02:40:43;;;;;;;12.85;11.18;;;2.60;99.90;;;;;;5020077;28;20503;-69
2021/05/03 02:43:09;;;;;;;12.60;11.30;;;2.40;99.90;;;;;;5018489;28;20034;-70
2021/05/03 02:45:36;;;;;;;12.90;11.70;;;2.30;99.90;;;;;;5023489;28;20361;-70
2021/05/03 02:48:01;;;;;;;12.15;11.13;;;2.20;99.90;;;;;;5025080;28;20026;-71
2021/05/03 02:50:27;;;;;;;12.27;11.07;;;2.20;99.90;;;;;;5020078;28;20079;-72
2021/05/03 02:52:53;;;;;;;12.73;11.38;;;2.20;99.90;;;;;;5012396;28;20026;-72
2021/05/03 02:55:21;;;;;;;12.10;10.98;;;2.40;99.90;;;;;;5002334;28;20029;-72
2021/05/03 02:57:48;;;;;;;12.52;11.32;;;2.10;99.90;;;;;;5030335;28;20683;-71
2021/05/03 03:00:20;;;;;;;13.15;11.85;;;2.00;99.90;;;;;;5005668;28;20029;-71
2021/05/03 03:02:45;;;;;;;13.38;11.50;;;1.90;99.90;;;;;;5022177;28;20049;-69
2021/05/03 03:05:11;;;;;;;12.77;11.60;;;2.00;99.90;;;;;;5026532;28;20523;-74
2021/05/03 03:07:36;;;;;;;15.02;13.43;;;1.70;99.90;;;;;;5031004;28;20030;-70
2021/05/03 03:10:03;;;;;;;14.57;13.07;;;1.60;99.90;;;;;;5035267;28;20435;-74
2021/05/03 03:12:28;;;;;;;14.48;13.18;;;1.50;99.90;;;;;;5017365;28;20036;-73
2021/05/03 03:14:54;;;;;;;14.50;13.00;;;1.70;99.90;;;;;;5035086;28;20471;-73
2021/05/03 03:17:19;;;;;;;14.68;13.25;;;1.70;99.90;;;;;;5017654;28;20018;-75
2021/05/03 03:19:45;;;;;;;14.32;13.07;;;1.80;99.90;;;;;;5026063;28;20030;-73
2021/05/03 03:22:10;;;;;;;13.75;12.40;;;1.90;99.90;;;;;;5015540;28;20113;-74
2021/05/03 03:24:37;;;;;;;14.48;12.98;;;1.80;99.90;;;;;;4999387;28;20084;-73
2021/05/03 03:27:03;;;;;;;14.15;12.75;;;2.10;99.90;;;;;;4998404;28;20372;-74
2021/05/03 03:29:29;;;;;;;14.07;12.57;;;2.30;99.90;;;;;;4997705;28;20026;-74
2021/05/03 03:31:54;;;;;;;14.07;12.77;;;2.20;99.90;;;;;;5015018;28;20030;-74
2021/05/03 03:34:20;;;;;;;13.50;12.30;;;2.10;99.90;;;;;;5014960;28;20384;-74
2021/05/03 03:36:47;;;;;;;14.93;13.50;;;1.90;99.90;;;;;;5014999;28;20123;-73
2021/05/03 03:39:13;;;;;;;12.80;11.70;;;1.70;99.90;;;;;;5015073;28;20018;-74
2021/05/03 03:41:38;;;;;;;13.48;11.95;;;1.70;99.90;;;;;;5014929;28;20036;-74
2021/05/03 03:44:05;;;;;;;14.18;12.77;;;2.00;99.90;;;;;;5014811;28;20036;-74
2021/05/03 03:46:30;;;;;;;13.90;12.60;;;2.10;99.90;;;;;;4997305;28;20137;-75
2021/05/03 03:48:56;;;;;;;14.25;12.95;;;2.20;99.90;;;;;;5014977;28;20470;-74
2021/05/03 03:51:22;;;;;;;14.40;12.90;;;2.00;99.90;;;;;;4997046;28;20496;-74
2021/05/03 03:53:48;;;;;;;13.40;12.20;;;1.80;99.90;;;;;;4996974;28;20052;-74
2021/05/03 03:56:14;;;;;;;12.93;11.73;;;2.00;99.90;;;;;;4997318;28;20025;-74
2021/05/03 03:58:40;;;;;;;13.52;12.13;;;2.40;99.90;;;;;;4997113;28;20101;-76
2021/05/03 04:01:09;;;;;;;14.13;12.73;;;2.20;99.90;;;;;;5014391;28;20018;-74
2021/05/03 04:03:35;;;;;;;15.80;14.05;;;2.00;99.90;;;;;;4996862;28;20022;-74
2021/05/03 04:06:17;;;;;;;14.25;12.95;;;2.00;99.90;;;;;;5016869;28;20110;-74
2021/05/03 04:11:50;;;;;;;13.43;12.13;;;2.30;99.90;;;;;;5032851;28;20091;-75
2021/05/03 04:21:04;;;;;;;14.95;13.38;;;2.40;99.90;;;;;;5016181;28;20013;-72
2021/05/03 04:23:01;;;;;;;14.23;12.88;;;2.60;99.90;;;;;;5027573;28;20394;-71
2021/05/03 04:27:51;;;;;;;14.30;13.00;;;2.30;99.90;;;;;;5023836;28;20021;-72
2021/05/03 04:30:17;;;;;;;13.73;12.35;;;2.30;99.90;;;;;;5020364;28;20109;-72
2021/05/03 04:32:43;;;;;;;14.32;12.80;;;2.20;99.90;;;;;;5024439;28;20108;-71
2021/05/03 04:35:09;;;;;;;14.07;12.65;;;2.20;99.90;;;;;;5027195;28;20029;-71
2021/05/03 04:37:35;;;;;;;15.18;12.35;;;2.20;99.90;;;;;;5022978;28;20029;-70
2021/05/03 04:40:00;;;;;;;13.82;12.52;;;2.30;99.90;;;;;;5020435;28;20026;-70
2021/05/03 04:42:26;;;;;;;13.45;11.98;;;2.50;99.90;;;;;;5033733;28;20029;-70
2021/05/03 04:44:51;;;;;;;12.95;11.75;;;2.60;99.90;;;;;;5020144;28;20041;-72
2021/05/03 04:47:17;;;;;;;13.05;11.77;;;2.60;99.90;;;;;;5007063;28;20026;-70
2021/05/03 04:49:42;;;;;;;14.40;12.27;;;2.60;99.90;;;;;;5009422;28;20029;-70
2021/05/03 04:52:08;;;;;;;13.70;12.40;;;2.60;99.90;;;;;;5013525;28;20515;-71
2021/05/03 04:54:34;;;;;;;14.77;13.30;;;2.50;99.90;;;;;;5015325;28;20076;-73
2021/05/03 04:56:59;;;;;;;14.63;13.15;;;2.50;99.90;;;;;;5007185;28;20392;-73
2021/05/03 04:59:25;;;;;;;15.82;14.18;;;2.50;99.90;;;;;;5026809;28;20021;-71
2021/05/03 05:01:50;;;;;;;14.48;12.98;;;2.50;99.90;;;;;;5004613;28;20120;-70
2021/05/03 05:04:16;;;;;;;14.00;12.65;;;2.70;99.90;;;;;;5032955;28;20484;-73
2021/05/03 05:06:42;;;;;;;14.07;12.27;;;2.70;99.90;;;;;;5015505;28;20026;-72
2021/05/03 05:09:08;;;;;;;13.50;12.20;;;3.00;99.90;;;;;;5015470;28;20022;-74
2021/05/03 05:11:34;;;;;;;12.50;11.35;;;3.10;99.90;;;;;;5032935;28;20033;-73
2021/05/03 05:14:00;;;;;;;13.90;12.60;;;3.20;99.90;;;;;;5014902;28;20036;-73
2021/05/03 05:16:27;;;;;;;12.30;11.10;;;3.10;99.90;;;;;;5015419;28;20116;-74
2021/05/03 05:18:53;;;;;;;14.10;12.60;;;3.20;99.90;;;;;;5026886;28;20072;-72
2021/05/03 05:21:19;;;;;;;22.10;20.15;;;3.40;99.90;;;;;;5012694;28;20496;-73
2021/05/03 05:23:44;;;;;;;34.15;30.58;;;3.60;99.90;;;;;;5012883;28;20038;-73
2021/05/03 05:26:10;;;;;;;47.55;42.40;;;3.20;99.90;;;;;;5013096;28;20026;-72
2021/05/03 05:28:36;;;;;;;80.18;62.50;;;3.40;99.90;;;;;;5013010;28;20499;-74
2021/05/03 05:31:02;;;;;;;21.05;18.10;;;3.50;99.90;;;;;;5013193;28;20376;-74
2021/05/03 05:33:28;;;;;;;119.88;74.25;;;3.70;99.90;;;;;;4995053;28;20041;-74
2021/05/03 05:35:53;;;;;;;28.88;21.33;;;3.90;99.90;;;;;;5021103;28;20021;-74
2021/05/03 05:38:19;;;;;;;40.88;30.70;;;3.90;99.90;;;;;;5032638;28;20057;-74
2021/05/03 05:40:46;;;;;;;17.60;14.63;;;4.10;99.90;;;;;;5032625;28;20022;-72
2021/05/03 05:43:12;;;;;;;13.57;11.07;;;3.90;99.90;;;;;;5015639;28;20032;-72
2021/05/03 05:45:37;;;;;;;13.57;12.23;;;4.20;99.90;;;;;;5024440;28;20026;-72
2021/05/03 05:48:03;;;;;;;12.73;11.50;;;4.40;99.90;;;;;;5028204;28;20048;-73
2021/05/03 05:50:29;;;;;;;14.82;11.68;;;4.20;99.90;;;;;;5033079;28;20501;-73
2021/05/03 05:52:55;;;;;;;11.98;10.82;;;4.20;99.90;;;;;;5031060;28;20034;-72
2021/05/03 05:55:20;;;;;;;13.48;11.70;;;4.10;99.90;;;;;;5012654;28;20097;-71
2021/05/03 05:57:46;;;;;;;13.50;12.20;;;4.00;99.90;;;;;;5015168;28;20105;-72
2021/05/03 06:00:12;;;;;;;13.55;12.13;;;4.30;99.90;;;;;;5024263;28;20026;-74
2021/05/03 06:02:38;;;;;;;15.23;13.73;;;4.60;99.90;;;;;;5027745;28;20030;-71
2021/05/03 06:05:04;;;;;;;13.55;11.15;;;4.90;99.90;;;;;;5023961;28;20029;-70
2021/05/03 06:07:29;;;;;;;12.05;10.82;;;4.90;99.90;;;;;;5008263;28;20116;-71
2021/05/03 06:09:55;;;;;;;12.55;11.20;;;5.20;99.90;;;;;;5012702;28;20076;-70
2021/05/03 06:12:20;;;;;;;11.85;10.55;;;5.10;99.90;;;;;;5012382;28;20072;-71
2021/05/03 06:14:46;;;;;;;13.23;10.13;;;5.20;99.90;;;;;;5006581;28;20025;-71
2021/05/03 06:17:11;;;;;;;12.98;9.90;;;5.20;99.90;;;;;;5008107;28;20017;-74
2021/05/03 06:19:37;;;;;;;10.23;9.05;;;5.50;99.90;;;;;;4999468;28;20022;-72
2021/05/03 06:22:02;;;;;;;11.07;9.93;;;5.50;99.90;;;;;;4996216;28;20022;-71
2021/05/03 06:24:28;;;;;;;10.43;9.35;;;5.50;99.90;;;;;;5006126;28;20022;-70
2021/05/03 06:26:53;;;;;;;10.77;9.60;;;5.70;99.90;;;;;;5024833;28;20036;-72
2021/05/03 06:29:19;;;;;;;10.27;9.27;;;5.80;99.90;;;;;;4994438;28;20446;-71
2021/05/03 06:31:47;;;;;;;11.40;9.85;;;5.80;99.90;;;;;;5007640;28;20025;-71
2021/05/03 06:34:12;;;;;;;12.55;9.73;;;5.80;99.90;;;;;;5014536;28;20017;-72
2021/05/03 06:36:38;;;;;;;10.68;9.57;;;5.60;99.90;;;;;;4999992;28;20028;-73
2021/05/03 06:39:03;;;;;;;9.85;8.88;;;5.70;99.90;;;;;;5020044;28;20088;-72
2021/05/03 06:41:29;;;;;;;9.90;9.00;;;5.80;99.90;;;;;;5011872;28;20539;-72
2021/05/03 06:43:55;;;;;;;10.43;8.95;;;6.10;99.90;;;;;;5020260;28;20037;-71
2021/05/03 06:46:20;;;;;;;10.75;8.63;;;6.20;99.90;;;;;;5018360;28;20022;-71
2021/05/03 06:48:46;;;;;;;10.18;8.68;;;6.40;99.90;;;;;;5024480;28;20034;-72
2021/05/03 06:51:12;;;;;;;9.55;8.63;;;6.50;99.90;;;;;;5005297;28;20072;-72
2021/05/03 06:53:37;;;;;;;11.52;9.43;;;6.50;99.90;;;;;;4994275;28;20026;-72
2021/05/03 06:56:03;;;;;;;9.63;8.32;;;6.60;99.90;;;;;;5012573;28;20097;-72
2021/05/03 06:58:29;;;;;;;10.40;9.40;;;6.10;99.90;;;;;;5006810;28;20061;-72
2021/05/03 07:00:54;;;;;;;10.43;9.40;;;6.10;99.90;;;;;;5008193;28;20053;-71
2021/05/03 07:03:20;;;;;;;11.60;8.32;;;6.30;99.90;;;;;;5031594;28;20053;-74
2021/05/03 07:05:45;;;;;;;12.65;9.70;;;6.70;99.90;;;;;;5013867;28;20037;-72
2021/05/03 07:08:12;;;;;;;9.02;8.13;;;6.60;99.90;;;;;;5024728;28;20377;-71
2021/05/03 07:10:44;;;;;;;9.57;7.80;;;6.80;99.90;;;;;;5011616;28;20483;-74
2021/05/03 07:13:10;;;;;;;12.38;8.23;;;6.70;99.90;;;;;;5012052;28;20026;-74
2021/05/03 07:15:35;;;;;;;9.52;8.60;;;6.80;99.90;;;;;;5003903;28;20048;-72
2021/05/03 07:18:01;;;;;;;8.98;8.13;;;6.90;99.90;;;;;;5011282;28;20018;-72
2021/05/03 07:20:27;;;;;;;9.73;8.07;;;6.90;99.90;;;;;;5009973;28;20037;-73
2021/05/03 07:22:53;;;;;;;9.82;8.52;;;6.80;99.90;;;;;;5012223;28;20029;-72
2021/05/03 07:25:18;;;;;;;10.30;7.93;;;6.90;99.90;;;;;;4993980;28;20037;-72
2021/05/03 07:27:44;;;;;;;9.88;8.77;;;6.80;99.90;;;;;;5011678;28;20018;-72
2021/05/03 07:30:12;;;;;;;9.65;8.65;;;7.10;99.90;;;;;;5011438;28;20100;-72
2021/05/03 07:32:39;;;;;;;10.55;9.43;;;7.10;99.90;;;;;;5011525;28;20025;-72
2021/05/03 07:35:07;;;;;;;10.05;9.05;;;7.10;99.90;;;;;;5011242;28;20058;-72
2021/05/03 07:37:33;;;;;;;12.23;9.10;;;6.90;99.90;;;;;;5011597;28;20076;-72
2021/05/03 07:39:59;;;;;;;10.75;8.40;;;6.90;99.90;;;;;;5013482;28;20488;-72
2021/05/03 07:42:25;;;;;;;11.60;10.18;;;7.30;99.90;;;;;;5022655;28;20022;-72
2021/05/03 07:44:50;;;;;;;9.80;8.65;;;7.60;99.90;;;;;;5012260;28;20030;-72
2021/05/03 07:47:16;;;;;;;10.85;8.30;;;7.30;99.90;;;;;;5014907;28;20030;-72
2021/05/03 07:49:42;;;;;;;10.27;7.88;;;7.30;99.90;;;;;;5014608;28;20038;-73
2021/05/03 07:52:07;;;;;;;10.75;8.80;;;7.50;99.90;;;;;;4996754;28;20025;-74
2021/05/03 07:54:34;;;;;;;10.38;9.20;;;7.70;99.90;;;;;;4996875;28;20081;-74
2021/05/03 07:57:00;;;;;;;11.13;9.30;;;7.60;99.90;;;;;;5014717;28;20068;-74
2021/05/03 07:59:26;;;;;;;8.98;8.07;;;7.60;99.90;;;;;;5016537;28;20026;-74
2021/05/03 08:01:51;;;;;;;10.77;9.68;;;8.20;99.90;;;;;;5016697;28;20025;-74
2021/05/03 08:04:17;;;;;;;10.48;8.80;;;8.10;99.90;;;;;;5015827;28;20079;-74
2021/05/03 08:06:45;;;;;;;12.95;9.77;;;8.20;99.90;;;;;;5022973;28;20108;-74
2021/05/03 08:09:10;;;;;;;10.35;9.32;;;7.90;99.90;;;;;;5016511;28;20434;-72
2021/05/03 08:11:43;;;;;;;10.45;9.05;;;7.90;99.90;;;;;;5034172;28;20030;-74
2021/05/03 08:14:08;;;;;;;11.20;8.55;;;7.80;99.90;;;;;;5016476;28;20026;-73
2021/05/03 08:16:37;;;;;;;11.65;8.80;;;8.00;99.90;;;;;;5034755;28;20478;-74
2021/05/03 08:19:02;;;;;;;10.05;8.55;;;8.20;99.90;;;;;;5031395;28;20017;-74
2021/05/03 08:21:28;;;;;;;9.52;8.05;;;8.10;99.90;;;;;;5007896;28;20025;-72
2021/05/03 08:23:53;;;;;;;9.50;8.00;;;8.60;99.90;;;;;;5014385;28;20034;-72
2021/05/03 08:26:19;;;;;;;9.80;8.80;;;8.70;99.90;;;;;;4996905;28;20014;-72
2021/05/03 08:28:48;;;;;;;9.45;7.85;;;8.70;99.90;;;;;;5014557;28;20447;-72
2021/05/03 08:31:13;;;;;;;9.40;7.78;;;8.70;99.90;;;;;;5024198;28;20032;-72
2021/05/03 08:33:39;;;;;;;10.75;8.00;;;8.60;99.90;;;;;;5033879;28;20041;-72
2021/05/03 08:36:05;;;;;;;10.75;8.65;;;8.80;99.90;;;;;;5033990;28;20055;-72
2021/05/03 08:38:30;;;;;;;9.63;8.27;;;8.90;99.90;;;;;;5034239;28;20030;-72
2021/05/03 08:40:58;;;;;;;9.50;8.50;;;9.30;99.90;;;;;;5033771;28;20457;-72
2021/05/03 08:43:26;;;;;;;11.10;8.30;;;9.50;99.90;;;;;;5017068;28;20026;-72
2021/05/03 08:45:51;;;;;;;9.18;8.32;;;9.40;99.90;;;;;;5013928;28;20020;-72
2021/05/03 08:48:25;;;;;;;9.05;7.35;;;9.20;99.90;;;;;;5013854;28;20093;-72
2021/05/03 08:50:56;;;;;;;9.75;8.48;;;9.10;99.90;;;;;;4993563;28;20038;-72
2021/05/03 08:53:32;;;;;;;11.25;7.43;;;9.40;99.90;;;;;;5031375;28;20057;-72
2021/05/03 08:55:58;;;;;;;8.73;7.60;;;9.30;99.90;;;;;;5033354;28;20093;-72
2021/05/03 08:58:24;;;;;;;10.45;7.60;;;9.30;99.90;;;;;;5033263;28;20022;-72
2021/05/03 09:00:50;;;;;;;8.85;7.93;;;9.40;99.90;;;;;;5020091;28;20032;-71
2021/05/03 09:03:16;;;;;;;8.25;7.13;;;9.30;99.90;;;;;;5033511;28;20411;-71
2021/05/03 09:05:43;;;;;;;9.27;8.20;;;8.90;99.90;;;;;;5020082;28;20022;-73
2021/05/03 09:08:21;;;;;;;8.35;7.55;;;9.30;99.90;;;;;;5009008;28;20033;-71
2021/05/03 09:10:47;;;;;;;8.32;7.45;;;9.50;99.90;;;;;;5026877;28;20029;-70
2021/05/03 09:13:13;;;;;;;7.25;6.55;;;9.70;99.90;;;;;;5022015;28;20029;-72
2021/05/03 09:15:39;;;;;;;7.47;5.70;;;9.50;99.90;;;;;;5002014;28;20034;-71
2021/05/03 09:18:05;;;;;;;7.70;5.68;;;9.30;99.90;;;;;;5025210;28;20033;-71
2021/05/03 09:20:31;;;;;;;7.15;5.97;;;9.50;99.90;;;;;;5015816;28;20030;-71
2021/05/03 09:23:07;;;;;;;8.02;6.10;;;9.50;99.90;;;;;;5033278;28;20108;-74
2021/05/03 09:25:40;;;;;;;7.00;6.30;;;9.30;99.90;;;;;;4998420;28;20117;-72
2021/05/03 09:28:12;;;;;;;8.45;6.15;;;9.70;99.90;;;;;;5005497;28;20476;-74
2021/05/03 09:30:44;;;;;;;7.07;6.15;;;10.10;99.90;;;;;;4996409;28;20057;-74
2021/05/03 09:33:16;;;;;;;7.32;5.65;;;10.40;99.90;;;;;;5013304;28;20026;-74
2021/05/03 09:35:52;;;;;;;6.35;5.55;;;10.30;99.90;;;;;;5013263;28;20024;-73
2021/05/03 09:38:28;;;;;;;;;;;9.80;99.90;;;;;;5013507;28;20036;-73
2021/05/03 09:41:15;;;;;;;7.00;5.40;;;9.80;99.90;;;;;;5013101;28;20352;-73
2021/05/03 09:44:05;;;;;;;5.95;5.35;;;9.90;99.90;;;;;;5013529;28;20029;-73
2021/05/03 09:46:48;;;;;;;6.88;6.07;;;9.80;99.90;;;;;;5005484;28;20160;-73
2021/05/03 09:49:19;;;;;;;7.70;5.95;;;9.80;99.90;;;;;;5024690;28;20022;-72
2021/05/03 09:51:57;;;;;;;7.75;5.70;;;9.70;99.90;;;;;;5028076;28;20033;-72
2021/05/03 09:54:28;;;;;;;7.47;6.05;;;9.60;99.90;;;;;;5012744;28;20014;-72
2021/05/03 09:57:05;;;;;;;7.07;6.10;;;9.90;99.90;;;;;;5013038;28;20049;-72
2021/05/03 09:59:39;;;;;;;6.72;6.03;;;10.70;99.90;;;;;;5013428;28;20018;-72
2021/05/03 10:02:24;;;;;;;7.55;6.20;;;10.90;99.90;;;;;;5022419;28;20026;-73
2021/05/03 10:07:36;;;;;;;7.32;6.57;;;10.40;99.90;;;;;;5019522;28;20555;-71
2021/05/03 10:10:15;;;;;;;6.43;5.38;;;10.40;99.90;;;;;;5005811;28;20029;-73
2021/05/03 10:12:41;;;;;;;7.43;5.93;;;10.50;99.90;;;;;;5007933;28;20080;-72
2021/05/03 10:15:09;;;;;;;7.93;6.28;;;10.90;99.90;;;;;;5001269;28;20021;-72
2021/05/03 10:17:40;;;;;;;6.53;5.55;;;11.10;99.90;;;;;;5001269;28;20032;-71
2021/05/03 10:20:08;;;;;;;6.45;5.45;;;10.70;99.90;;;;;;4998918;28;20108;-72
2021/05/03 10:22:34;;;;;;;6.85;6.00;;;11.30;99.90;;;;;;5025728;28;20040;-72
2021/05/03 10:25:04;;;;;;;6.47;5.38;;;11.30;99.90;;;;;;5024790;28;20022;-71
2021/05/03 10:27:31;;;;;;;8.48;6.20;;;11.40;99.90;;;;;;5001611;28;20379;-71
2021/05/03 10:30:19;;;;;;;6.57;5.28;;;11.10;99.90;;;;;;5019534;28;20025;-72
2021/05/03 10:33:05;;;;;;;6.65;5.43;;;10.90;99.90;;;;;;4994655;28;20053;-72
2021/05/03 10:35:39;;;;;;;6.82;5.57;;;10.70;99.90;;;;;;5011749;28;20481;-72
2021/05/03 10:38:05;;;;;;;5.75;5.13;;;10.50;99.90;;;;;;5025119;28;20021;-72
2021/05/03 10:40:33;;;;;;;5.68;4.80;;;11.40;99.90;;;;;;4994575;28;20476;-72
2021/05/03 10:43:02;;;;;;;5.45;4.22;;;11.80;99.90;;;;;;5012388;28;20022;-72
2021/05/03 10:52:02;;;;;;;5.70;4.30;;;12.00;98.30;;;;;;5019500;28;20496;-72
2021/05/03 10:54:36;;;;;;;4.38;3.97;;;12.00;99.90;;;;;;5031699;28;20395;-74
2021/05/03 10:57:07;;;;;;;6.85;5.22;;;11.00;99.90;;;;;;5032409;28;20013;-74
2021/05/03 10:59:48;;;;;;;5.82;4.38;;;11.00;99.00;;;;;;5014166;28;20075;-74
2021/05/03 11:02:18;;;;;;;4.78;4.25;;;11.80;97.80;;;;;;5002786;28;20029;-73
2021/05/03 11:05:09;;;;;;;5.93;4.55;;;12.60;99.50;;;;;;5011448;28;20026;-74
2021/05/03 11:07:34;;;;;;;6.32;4.88;;;12.80;98.00;;;;;;5011716;28;20105;-74
2021/05/03 11:10:00;;;;;;;4.70;4.20;;;12.50;97.30;;;;;;5011710;28;20109;-73
2021/05/03 11:12:29;;;;;;;4.78;4.20;;;12.00;99.90;;;;;;5011494;28;20042;-73
2021/05/03 11:15:18;;;;;;;5.25;3.60;;;12.00;95.60;;;;;;5013258;28;20056;-74
2021/05/03 11:18:21;;;;;;;3.67;3.22;;;12.60;94.70;;;;;;5010221;28;20021;-73
2021/05/03 11:21:09;;;;;;;4.55;3.80;;;12.50;94.30;;;;;;4987542;28;20068;-74
2021/05/03 11:23:37;;;;;;;6.38;4.30;;;12.30;93.30;;;;;;5017482;28;20128;-74
2021/05/03 11:26:03;;;;;;;5.13;4.63;;;12.20;95.50;;;;;;5027814;28;20030;-74
2021/05/03 11:28:33;;;;;;;4.90;4.40;;;12.40;98.80;;;;;;5023437;28;20419;-74
2021/05/03 11:31:01;;;;;;;7.55;4.15;;;12.30;96.80;;;;;;5012075;28;20501;-74
2021/05/03 11:33:38;;;;;;;5.65;4.50;;;12.60;97.00;;;;;;5028864;28;20028;-76
2021/05/03 11:36:11;;;;;;;5.72;4.97;;;13.00;99.90;;;;;;4997855;28;20392;-74
2021/05/03 11:42:29;;;;;;;3.90;3.60;;;13.30;98.40;;;;;;5015121;28;20105;-72
2021/05/03 11:44:27;;;;;;;5.22;3.90;;;13.60;94.90;;;;;;4994612;28;20073;-73
2021/05/03 11:46:52;;;;;;;5.03;4.38;;;14.10;94.90;;;;;;5026946;28;20044;-73
2021/05/03 11:49:20;;;;;;;4.47;4.07;;;13.50;95.00;;;;;;5009092;28;20480;-73
2021/05/03 11:51:47;;;;;;;5.00;4.50;;;13.10;95.00;;;;;;5021319;28;20558;-72
2021/05/03 11:54:27;;;;;;;6.22;4.45;;;13.60;96.60;;;;;;5022426;28;20022;-72
2021/05/03 11:57:05;;;;;;;5.32;4.75;;;13.70;98.70;;;;;;5010532;28;20018;-71
2021/05/03 11:59:31;;;;;;;5.18;4.30;;;14.50;96.60;;;;;;5003564;28;20481;-73
2021/05/03 12:02:02;;;;;;;5.55;4.88;;;14.90;96.20;;;;;;5025061;28;20033;-73
2021/05/03 12:04:42;;;;;;;5.47;4.75;;;14.90;93.50;;;;;;5027976;28;20089;-72
2021/05/03 12:07:13;;;;;;;5.13;4.30;;;15.00;93.20;;;;;;5026817;28;20036;-71
2021/05/03 12:09:40;;;;;;;4.82;4.32;;;14.00;92.50;;;;;;5003697;28;20115;-73
2021/05/03 12:12:06;;;;;;;4.47;3.75;;;14.50;96.60;;;;;;5003834;28;20033;-72
2021/05/03 12:14:40;;;;;;;4.20;3.60;;;14.90;92.40;;;;;;5027527;28;20072;-72
2021/05/03 12:17:23;;;;;;;4.93;3.72;;;13.10;95.40;;;;;;5015244;28;20025;-72
2021/05/03 12:19:52;;;;;;;5.88;3.88;;;12.60;94.80;;;;;;5002897;28;20038;-73
2021/05/03 12:22:18;;;;;;;4.50;4.05;;;12.10;95.50;;;;;;5009789;28;20053;-72
2021/05/03 12:24:46;;;;;;;6.03;4.47;;;12.00;95.60;;;;;;5006526;28;20397;-72
2021/05/03 12:27:12;;;;;;;6.00;4.20;;;12.20;95.20;;;;;;5020746;28;20045;-72
2021/05/03 12:29:41;;;;;;;4.65;4.05;;;12.00;95.50;;;;;;5024037;28;20064;-72
2021/05/03 12:32:11;;;;;;;6.00;4.70;;;12.00;97.30;;;;;;5026531;28;20034;-72
2021/05/03 12:34:43;;;;;;;4.80;4.35;;;12.50;96.10;;;;;;5025163;28;20061;-72
2021/05/03 12:37:29;;;;;;;5.90;4.55;;;13.60;99.90;;;;;;5002938;28;20510;-72
2021/05/03 12:40:06;;;;;;;5.20;4.25;;;14.50;95.10;;;;;;5020655;28;20476;-72
2021/05/03 12:42:38;;;;;;;4.60;4.03;;;15.10;94.90;;;;;;5006869;28;20057;-73
2021/05/03 12:45:26;;;;;;;6.78;4.28;;;14.70;91.00;;;;;;5017292;28;20049;-73
2021/05/03 12:48:03;;;;;;;5.80;3.70;;;13.60;91.30;;;;;;5003196;28;20026;-73
2021/05/03 12:51:34;;;;;;;4.25;3.72;;;12.70;92.40;;;;;;5002144;28;20076;-73
2021/05/03 12:57:15;;;;;;;5.20;4.50;;;12.50;94.40;;;;;;5022312;28;20026;-73
2021/05/03 12:59:48;;;;;;;4.05;3.65;;;12.50;93.70;;;;;;5031606;28;20080;-73
2021/05/03 13:05:14;;;;;;;4.15;3.50;;;11.80;94.20;;;;;;5021395;28;20076;-73
2021/05/03 13:07:52;;;;;;;6.50;4.50;;;12.00;94.70;;;;;;5019393;28;20129;-73
2021/05/03 13:10:52;;;;;;;4.03;3.72;;;11.40;93.00;;;;;;5005719;28;20025;-73
2021/05/03 13:29:56;;;;;;;5.43;4.72;;;13.50;89.40;;;;;;5013373;28;20120;-71
2021/05/03 13:32:30;;;;;;;5.20;4.60;;;14.80;89.30;;;;;;5026425;28;20025;-71
2021/05/03 13:34:58;;;;;;;5.40;4.85;;;16.00;87.90;;;;;;5026711;28;20095;-74
2021/05/03 13:37:24;;;;;;;5.03;4.53;;;15.40;83.20;;;;;;5032848;28;20025;-74
2021/05/03 13:39:50;;;;;;;5.50;4.57;;;16.60;87.40;;;;;;5032634;28;20025;-69